Latest Weather Observations for Wiluna Airport

IDW60801

Issued at 6:14 pm WST Sunday 24 January 2021 (issued every 10 minutes, with the page automatically refreshed every 10 minutes)

About weather observations | Map of weather stations | Latest weather observations for WA | Other Formats
Station Details ID: 013044 Name: WILUNA AERO Lat: -26.63 Lon: 120.22 Height: 502.4 m
Data from the previous 72 hours. | See also: Recent months at Wiluna Airport
Date/Time
WST
Temp
°C
App
Temp
°C
Dew
Point
°C
Rel
Hum
%
Delta-T
°C
Wind Press
QNH
hPa
Press
MSL
hPa
Rain since
9am
mm
Dir  Spd
km/h
Gust
km/h
Spd
kts
Gust
kts
24/06:00pm 33.3 28.0 6.6 19 14.9 WSW 24 33 13 18 1003.3 999.2 0.0
24/05:30pm 34.7 28.9 6.1 17 15.9 W 26 37 14 20 1003.0 998.9 0.0
24/05:00pm 34.6 28.9 5.1 16 16.2 W 24 37 13 20 1002.8 998.7 0.0
24/04:30pm 34.7 28.1 6.1 17 15.9 W 30 41 16 22 1002.7 998.6 0.0
24/04:00pm 35.8 30.1 5.1 15 16.9 W 24 39 13 21 1002.8 998.7 0.0
24/03:43pm 35.5 29.0 4.9 15 16.7 W 28 46 15 25 1002.8 998.7 0.0
24/03:30pm 35.4 28.7 5.8 16 16.4 W 30 46 16 25 1002.9 998.8 0.0
24/03:25pm 35.6 29.5 6.8 17 16.2 WNW 28 46 15 25 1002.8 998.7 0.0
24/03:00pm 35.7 30.0 6.9 17 16.3 W 26 39 14 21 1003.0 998.9 0.0
24/02:32pm 35.5 29.8 6.7 17 16.2 W 26 52 14 28 1003.1 999.0 0.0
24/02:30pm 36.0 30.6 6.2 16 16.7 W 24 39 13 21 1003.1 999.0 0.0
24/02:00pm 36.0 29.4 6.2 16 16.7 WNW 30 39 16 21 1003.3 999.2 0.0
24/01:30pm 35.2 29.5 6.5 17 16.1 WNW 26 39 14 21 1003.5 999.4 0.0
24/01:00pm 34.7 28.1 6.1 17 15.9 WNW 30 43 16 23 1003.8 999.6 0.0
24/12:30pm 34.4 28.5 7.5 19 15.2 WNW 28 46 15 25 1004.1 1000.0 0.0
24/12:00pm 35.2 31.7 10.9 23 14.6 W 20 33 11 18 1004.3 1000.2 0.0
24/11:30am 33.5 29.5 11.9 27 13.0 W 24 33 13 18 1004.7 1000.6 0.0
24/11:00am 32.5 29.1 10.5 26 13.0 W 19 30 10 16 1005.1 1001.0 0.0
24/10:30am 31.7 28.8 11.0 28 12.2 WNW 17 26 9 14 1005.4 1001.3 0.0
24/10:00am 30.6 29.9 14.3 37 10.1 WSW 11 17 6 9 1005.5 1001.4 0.0
24/09:30am 29.4 28.9 14.8 41 9.1 WSW 11 20 6 11 1005.7 1001.7 0.0
24/09:00am 28.2 27.3 14.8 44 8.3 WSW 13 20 7 11 1006.2 1002.1 0.0
24/08:30am 28.1 26.5 15.1 45 8.1 WSW 17 24 9 13 1006.3 1002.2 0.0
24/08:00am 27.6 25.6 14.9 45 7.9 WSW 19 28 10 15 1006.1 1002.0 0.0
24/07:30am 27.1 25.0 14.8 47 7.6 WSW 19 24 10 13 1006.0 1001.9 0.0
24/07:00am 26.4 24.7 14.8 49 7.1 SW 17 24 9 13 1005.6 1001.5 0.0
24/06:30am 25.8 23.4 14.3 49 7.0 WSW 20 26 11 14 1005.6 1001.5 0.0
24/06:00am 25.0 22.9 11.2 42 8.0 W 13 20 7 11 1005.3 1001.2 0.0
24/05:30am 24.2 22.1 8.2 36 8.7 WNW 9 13 5 7 1004.8 1000.7 0.0
24/05:00am 24.4 21.7 7.5 34 9.1 WNW 11 13 6 7 1004.5 1000.4 0.0
24/04:30am 24.9 22.5 7.1 32 9.5 W 9 13 5 7 1004.1 1000.0 0.0
24/04:00am 25.8 21.9 6.9 30 10.2 W 17 22 9 12 1003.8 999.6 0.0
24/03:30am 26.2 22.1 6.3 28 10.6 WNW 17 22 9 12 1003.6 999.5 0.0
24/03:00am 26.6 22.5 6.1 27 11.0 WNW 17 20 9 11 1003.3 999.2 0.0
24/02:30am 27.2 23.1 6.0 26 11.3 WNW 17 20 9 11 1003.4 999.3 0.0
24/02:00am 27.5 24.2 6.3 26 11.4 WNW 13 17 7 9 1003.6 999.5 0.0
24/01:30am 28.2 25.4 6.9 26 11.6 WNW 11 15 6 8 1003.8 999.6 0.0
24/01:00am 28.8 26.1 9.0 29 11.2 WNW 13 17 7 9 1003.8 999.6 0.0
24/12:30am 30.1 27.1 9.1 27 12.0 WNW 15 17 8 9 1003.5 999.4 0.0
24/12:00am 30.5 30.4 15.0 39 9.7 WSW 9 13 5 7 1003.4 999.3 0.0
 
Date/Time
WST
Temp
°C
App
Temp
°C
Dew
Point
°C
Rel
Hum
%
Delta-T
°C
Wind Press
QNH
hPa
Press
MSL
hPa
Rain since
9am
mm
Dir  Spd
km/h
Gust
km/h
Spd
kts
Gust
kts
23/11:30pm 31.5 31.6 15.5 38 10.1 WSW 9 11 5 6 1003.5 999.4 0.0
23/11:00pm 32.8 32.0 12.9 29 12.2 W 9 13 5 7 1003.5 999.4 0.0
23/10:30pm 32.1 30.9 16.0 38 10.3 W 17 30 9 16 1003.9 999.8 0.0
23/10:00pm 31.7 33.1 16.4 39 9.8 SE 4 9 2 5 1003.6 999.5 0.0
23/09:30pm 31.8 32.9 16.5 39 9.8 SE 6 7 3 4 1003.5 999.4 0.0
23/09:00pm 32.5 33.0 15.5 36 10.8 SE 7 7 4 4 1003.3 999.2 0.0
23/08:30pm 33.3 33.1 14.8 32 11.6 SE 9 11 5 6 1003.1 999.0 0.0
23/08:00pm 33.2 32.8 15.2 33 11.4 SE 11 11 6 6 1003.0 998.9 0.0
23/07:30pm 33.9 32.6 14.9 32 12.0 SSE 15 17 8 9 1002.8 998.7 0.0
23/07:00pm 34.2 33.2 14.7 31 12.3 SE 13 17 7 9 1002.5 998.4 0.0
23/06:30pm 34.7 32.6 13.5 28 13.2 SE 17 20 9 11 1002.2 998.1 0.0
23/06:00pm 35.2 33.4 13.4 27 13.6 SE 15 22 8 12 1002.0 997.8 0.0
23/05:30pm 35.6 34.3 13.7 27 13.7 SE 13 20 7 11 1001.8 997.6 0.0
23/05:00pm 36.4 35.3 14.4 27 14.0 E 13 20 7 11 1001.5 997.4 0.0
23/04:30pm 35.6 34.1 14.3 28 13.4 ESE 15 28 8 15 1001.7 997.5 0.0
23/04:00pm 36.0 35.6 15.2 29 13.3 ESE 11 19 6 10 1001.8 997.6 0.0
23/03:30pm 35.6 35.2 15.3 29 13.0 SE 11 22 6 12 1002.1 998.0 0.0
23/03:00pm 34.9 34.2 15.3 31 12.5 SE 13 24 7 13 1002.4 998.3 0.0
23/02:30pm 35.5 34.2 15.8 31 12.7 SSE 17 24 9 13 1002.6 998.5 0.0
23/02:00pm 34.5 33.8 15.4 32 12.2 E 13 20 7 11 1002.9 998.8 0.0
23/01:30pm 34.0 33.7 15.5 33 11.8 NE 11 19 6 10 1003.2 999.1 0.0
23/01:00pm 33.0 32.9 15.9 35 11.0 NE 11 19 6 10 1003.5 999.4 0.0
23/12:30pm 32.3 32.7 16.2 38 10.3 N 9 19 5 10 1003.9 999.8 0.0
23/12:00pm 31.7 31.0 16.4 39 9.8 ENE 15 20 8 11 1004.4 1000.3 0.0
23/11:30am 32.0 31.6 17.1 41 9.6 NNE 15 22 8 12 1004.9 1000.8 0.0
23/11:00am 30.2 30.0 16.6 44 8.7 NE 13 20 7 11 1005.2 1001.1 0.0
23/10:30am 30.5 29.4 17.2 44 8.6 ENE 19 24 10 13 1005.5 1001.4 0.0
23/10:00am 28.9 27.3 16.5 47 7.9 NE 20 28 11 15 1006.0 1001.9 0.0
23/09:30am 28.5 27.7 17.1 50 7.3 ENE 17 24 9 13 1006.3 1002.2 0.0
23/09:00am 28.0 27.1 16.9 51 7.1 NE 17 26 9 14 1006.2 1002.1 4.2
23/08:30am 26.8 25.4 17.0 55 6.2 ENE 20 26 11 14 1006.3 1002.2 4.2
23/08:00am 26.3 24.7 17.4 58 5.7 NE 22 30 12 16 1006.4 1002.3 4.2
23/07:30am 25.7 24.9 17.1 59 5.5 NE 17 26 9 14 1006.6 1002.5 4.2
23/07:00am 24.8 25.5 17.0 62 4.9 N 9 15 5 8 1006.6 1002.5 4.2
23/06:30am 23.8 25.6 18.4 72 3.5 N 6 7 3 4 1006.5 1002.4 4.2
23/06:00am 21.7 25.1 19.4 87 1.5 CALM 0 0 0 0 1006.0 1001.9 4.2
23/05:30am 21.1 24.5 19.4 90 1.1 CALM 0 7 0 4 1005.9 1001.8 4.2
23/05:00am 21.1 23.9 18.9 87 1.4 N 2 7 1 4 1005.6 1001.5 4.2
23/04:30am 21.5 24.2 18.7 84 1.8 N 2 9 1 5 1005.2 1001.1 4.2
23/04:00am 22.3 24.0 18.5 79 2.4 NNE 7 9 4 5 1004.7 1000.6 4.2
23/03:30am 22.7 24.4 18.5 77 2.7 NNE 7 9 4 5 1004.8 1000.7 4.2
23/03:00am 23.0 23.1 18.3 75 3.0 NE 15 20 8 11 1004.4 1000.3 4.2
23/02:30am 23.3 22.7 18.4 74 3.1 NE 19 28 10 15 1004.5 1000.4 4.2
23/02:00am 23.3 23.2 18.8 76 2.9 NE 17 26 9 14 1004.9 1000.8 4.2
23/01:30am 23.4 21.8 18.3 73 3.3 ENE 24 32 13 17 1004.8 1000.7 4.2
23/01:00am 23.8 21.1 17.5 68 4.0 ENE 28 41 15 22 1005.2 1001.1 4.2
23/12:30am 24.6 22.0 17.8 66 4.3 ENE 28 41 15 22 1005.9 1001.8 4.2
23/12:00am 24.8 23.5 19.0 70 3.8 ENE 24 32 13 17 1006.5 1002.4 4.2
 
Date/Time
WST
Temp
°C
App
Temp
°C
Dew
Point
°C
Rel
Hum
%
Delta-T
°C
Wind Press
QNH
hPa
Press
MSL
hPa
Rain since
9am
mm
Dir  Spd
km/h
Gust
km/h
Spd
kts
Gust
kts
22/11:30pm 24.0 22.6 20.5 81 2.3 E 28 37 15 20 1007.1 1003.0 4.2
22/11:00pm 23.2 22.6 20.5 85 1.8 ESE 24 33 13 18 1008.1 1004.0 4.0
22/10:30pm 24.0 24.4 19.9 78 2.7 E 17 22 9 12 1009.4 1005.4 3.4
22/10:00pm 23.7 27.5 21.6 88 1.4 SSW 4 7 2 4 1009.2 1005.1 3.2
22/09:30pm 23.6 25.3 20.9 85 1.8 SSE 13 15 7 8 1009.1 1005.0 3.2
22/09:00pm 23.9 24.1 20.2 80 2.4 ESE 19 24 10 13 1008.4 1004.3 2.6
22/08:30pm 25.1 27.1 19.9 73 3.4 SSE 9 15 5 8 1008.3 1004.2 2.2
22/08:00pm 26.4 27.5 18.8 63 5.0 SW 11 17 6 9 1007.8 1003.8 2.2
22/07:30pm 27.5 26.8 18.2 57 6.0 WNW 19 24 10 13 1006.8 1002.7 1.8
22/07:00pm 28.6 27.3 17.2 50 7.3 W 20 32 11 17 1005.7 1001.7 1.8
22/06:30pm 29.7 25.2 15.0 40 9.2 NNW 32 43 17 23 1005.2 1001.1 1.6
22/06:16pm 31.4 27.7 15.0 37 10.3 NNW 28 35 15 19 1004.6 1000.5 1.6
22/06:00pm 32.6 32.9 16.0 36 10.6 NNE 9 13 5 7 1004.4 1000.3 1.6
22/05:30pm 32.1 31.0 16.4 39 10.1 NE 17 26 9 14 1004.0 999.9 1.6
22/05:00pm 30.3 30.3 19.0 50 7.5 E 17 22 9 12 1004.1 1000.0 1.6
22/04:30pm 27.6 25.8 20.4 65 4.8 SSE 30 37 16 20 1004.4 1000.3 1.6
22/04:00pm 25.7 22.3 19.8 70 3.9 SSE 37 50 20 27 1004.7 1000.6 1.6
22/03:30pm 26.4 23.8 20.0 68 4.2 SSW 33 43 18 23 1004.4 1000.3 1.4
22/03:10pm 27.3 25.1 19.6 62 5.1 SW 30 48 16 26 1004.5 1000.4 1.4
22/03:00pm 28.4 28.5 20.4 62 5.4 WSW 20 30 11 16 1004.2 1000.1 1.4
22/02:44pm 29.3 26.2 18.4 51 7.1 NNE 32 65 17 35 1003.8 999.6 1.2
22/02:36pm 30.2 24.7 18.0 48 8.0 N 44 72 24 39 1003.3 999.2 0.0
22/02:30pm 35.2 30.6 15.0 30 12.8 N 33 65 18 35 1002.7 998.6 0.0
22/02:01pm 39.5 34.7 11.6 19 17.1 N 28 48 15 26 1002.4 998.3 0.0
22/02:00pm 39.2 34.3 11.3 19 17.1 N 28 41 15 22 1002.4 998.3 0.0
22/01:30pm 40.7 36.3 11.7 18 17.9 NNW 26 39 14 21 1003.0 998.9 0.0
22/01:19pm 39.7 34.7 10.9 18 17.5 NNE 28 46 15 25 1003.3 999.2 0.0
22/01:00pm 41.2 36.8 10.4 16 18.8 N 24 43 13 23 1003.6 999.5 0.0
22/12:42pm 40.5 35.0 10.7 17 18.2 NNE 30 48 16 26 1003.9 999.8 0.0
22/12:30pm 40.1 34.7 9.5 16 18.3 N 28 44 15 24 1004.2 1000.1 0.0
22/12:12pm 39.9 34.7 10.2 17 17.9 NNE 28 48 15 26 1004.4 1000.3 0.0
22/12:00pm 40.2 35.7 11.3 18 17.8 N 26 44 14 24 1004.7 1000.6 0.0
22/11:30am 40.5 35.8 10.7 17 18.2 NNE 26 37 14 20 1005.1 1001.0 0.0
22/11:00am 40.0 36.1 12.0 19 17.4 N 24 37 13 20 1005.6 1001.5 0.0
22/10:30am 39.8 35.7 12.6 20 17.0 N 26 39 14 21 1006.1 1002.0 0.0
22/10:15am 38.7 33.9 11.7 20 16.6 N 28 46 15 25 1006.1 1002.0 0.0
22/10:00am 37.9 33.9 11.8 21 16.0 NNW 24 37 13 20 1006.5 1002.4 0.0
22/09:30am 37.9 33.8 13.8 23 15.2 N 28 41 15 22 1006.5 1002.4 0.0
22/09:00am 36.6 32.9 14.0 26 14.3 N 26 39 14 21 1006.5 1002.4 0.0
22/08:30am 36.1 32.5 14.1 26 13.8 NNW 26 39 14 21 1006.5 1002.4 0.0
22/08:00am 35.5 32.3 14.2 28 13.4 NNW 24 39 13 21 1006.5 1002.4 0.0
22/07:30am 34.4 31.4 14.8 30 12.4 N 24 41 13 22 1006.7 1002.6 0.0
22/07:00am 32.5 31.5 14.6 34 11.2 N 13 19 7 10 1006.9 1002.8 0.0
22/06:30am 31.9 31.2 13.2 32 11.4 NNW 9 13 5 7 1006.8 1002.7 0.0
22/06:00am 31.1 29.9 11.5 30 11.7 ESE 9 11 5 6 1006.5 1002.4 0.0
22/05:30am 31.0 29.8 10.4 28 12.0 N 7 9 4 5 1006.0 1001.9 0.0
22/05:00am 31.4 29.9 10.7 28 12.2 N 9 11 5 6 1005.4 1001.3 0.0
22/04:30am 32.0 29.6 10.1 26 12.8 NNE 13 19 7 10 1005.1 1001.0 0.0
22/04:00am 31.2 30.3 10.5 28 12.2 NNE 6 9 3 5 1005.1 1001.0 0.0
22/03:30am 31.4 31.3 9.6 26 12.6 CALM 0 4 0 2 1005.0 1000.9 0.0
22/03:00am 31.2 30.1 10.0 27 12.4 NNE 6 9 3 5 1005.1 1001.0 0.0
22/02:30am 31.3 28.9 10.1 27 12.3 NNE 13 19 7 10 1005.0 1000.9 0.0
22/02:00am 30.9 27.8 10.3 28 12.0 NE 17 22 9 12 1005.1 1001.0 0.0
22/01:30am 31.1 29.5 11.5 30 11.6 NE 11 15 6 8 1004.9 1000.8 0.0
22/01:00am 30.8 29.3 10.7 29 11.8 NE 9 11 5 6 1004.8 1000.7 0.0
22/12:30am 31.5 29.5 10.2 27 12.4 ENE 11 15 6 8 1004.9 1000.8 0.0
22/12:00am 31.2 30.0 9.4 26 12.6 ESE 6 7 3 4 1005.1 1001.0 0.0
 
Date/Time
WST
Temp
°C
App
Temp
°C
Dew
Point
°C
Rel
Hum
%
Delta-T
°C
Wind Press
QNH
hPa
Press
MSL
hPa
Rain since
9am
mm
Dir  Spd
km/h
Gust
km/h
Spd
kts
Gust
kts
21/11:30pm 31.6 30.3 9.2 25 12.9 ESE 6 9 3 5 1005.6 1001.5 0.0
21/11:00pm 33.0 32.2 9.7 24 13.6 ESE 4 9 2 5 1006.1 1002.0 0.0
21/10:30pm 33.6 32.8 9.6 23 14.0 ESE 4 11 2 6 1006.5 1002.4 0.0
21/10:00pm 33.9 32.6 9.9 23 14.1 SSW 7 9 4 5 1006.7 1002.6 0.0
21/09:30pm 34.5 32.6 10.4 23 14.3 SSW 11 17 6 9 1006.7 1002.6 0.0
21/09:00pm 34.5 32.2 10.4 23 14.3 SW 13 19 7 10 1006.8 1002.7 0.0
21/08:30pm 34.5 30.1 10.4 23 14.3 WSW 24 30 13 16 1006.8 1002.7 0.0
21/08:00pm 35.6 30.7 9.9 21 15.2 W 26 39 14 21 1006.7 1002.6 0.0
21/07:30pm 36.0 31.9 8.0 18 16.1 WSW 19 24 10 13 1006.2 1002.1 0.0
21/07:00pm 36.8 33.2 6.9 16 17.0 SSW 15 19 8 10 1005.9 1001.8 0.0
21/06:30pm 36.5 33.7 8.4 18 16.3 S 13 15 7 8 1005.9 1001.8 0.0

Other formats

Comma delimited format used in spreadsheet applications
http://www.bom.gov.au/fwo/IDW60801/IDW60801.95439.axf

JavaScript Object Notation format (JSON) in row-major order
http://www.bom.gov.au/fwo/IDW60801/IDW60801.95439.json

Data quality

Most of these data are generated automatically and are frequently updated. Quality checks on data are not normally performed. It is possible for incorrect values to appear. Refer to information at About Latest Weather Observations and please check the disclaimer before using these data.